Time;durP1;ratioP1;P1;durP2;ratioP2;P2;SDS_P1;SDS_P2;PMS_P1;PMS_P2;Temp;Humidity;BMP_temperature;BMP_pressure;BME280_temperature;BME280_humidity;BME280_pressure;Samples;Min_cycle;Max_cycle;Signal;HPM_P1;HPM_P2
2024/03/12 00:00:02;;;;;;;20.08;9.95;;;;;;;5.64;100.00;100541.06;4983746;28;20446;-77
2024/03/12 00:02:28;;;;;;;20.13;10.15;;;;;;;5.63;100.00;100547.66;4954874;28;20031;-77
2024/03/12 00:04:54;;;;;;;19.17;9.80;;;;;;;5.62;100.00;100551.53;4994787;28;20438;-77
2024/03/12 00:07:22;;;;;;;19.13;9.82;;;;;;;5.52;100.00;100558.59;4998117;28;20026;-77
2024/03/12 00:09:48;;;;;;;19.88;9.88;;;;;;;5.50;100.00;100562.69;4995512;28;20026;-76
2024/03/12 00:12:13;;;;;;;21.85;9.48;;;;;;;5.50;100.00;100558.00;4980480;28;20054;-76
2024/03/12 00:14:42;;;;;;;19.10;10.20;;;;;;;5.47;100.00;100554.97;4992801;28;20103;-77
2024/03/12 00:17:08;;;;;;;18.63;9.43;;;;;;;5.45;100.00;100555.19;4999762;28;20026;-77
2024/03/12 00:19:33;;;;;;;17.10;9.48;;;;;;;5.43;100.00;100560.13;5013024;28;20049;-76
2024/03/12 00:22:00;;;;;;;18.10;9.82;;;;;;;5.36;100.00;100565.84;4980710;28;20034;-76
2024/03/12 00:24:25;;;;;;;19.55;9.75;;;;;;;5.39;100.00;100564.50;4996447;28;20057;-77
2024/03/12 00:26:52;;;;;;;14.95;9.35;;;;;;;5.37;100.00;100563.91;4996339;28;20026;-77
2024/03/12 00:29:19;;;;;;;17.35;10.18;;;;;;;5.30;100.00;100555.03;4963126;28;20026;-77
2024/03/12 00:31:45;;;;;;;16.25;9.55;;;;;;;5.30;100.00;100560.56;4945469;28;20038;-77
2024/03/12 00:34:11;;;;;;;20.88;10.30;;;;;;;5.33;100.00;100560.84;4961808;28;20582;-77
2024/03/12 00:36:36;;;;;;;17.58;9.70;;;;;;;5.33;100.00;100555.34;4996110;28;20034;-76
2024/03/12 00:39:02;;;;;;;19.90;9.32;;;;;;;5.33;100.00;100560.03;4996470;28;20073;-77
2024/03/12 00:41:28;;;;;;;16.27;9.60;;;;;;;5.31;100.00;100556.69;4979811;28;20041;-76
2024/03/12 00:43:54;;;;;;;21.40;9.15;;;;;;;5.30;100.00;100566.06;4947892;28;20073;-76
2024/03/12 00:46:21;;;;;;;17.10;9.90;;;;;;;5.31;100.00;100567.72;4958911;28;20026;-77
2024/03/12 00:48:47;;;;;;;18.38;9.70;;;;;;;5.29;100.00;100562.47;4971483;28;20641;-77
2024/03/12 00:51:12;;;;;;;16.15;9.38;;;;;;;5.29;100.00;100572.63;4996042;28;20065;-77
2024/03/12 00:53:39;;;;;;;14.65;8.88;;;;;;;5.30;100.00;100568.81;4995959;28;20030;-76
2024/03/12 00:56:04;;;;;;;15.45;9.13;;;;;;;5.26;100.00;100570.41;4979888;28;20057;-77
2024/03/12 00:58:32;;;;;;;22.73;9.20;;;;;;;5.27;100.00;100566.59;4995665;28;20046;-77
2024/03/12 01:00:58;;;;;;;14.93;9.10;;;;;;;5.25;100.00;100563.25;4995567;28;20054;-77
2024/03/12 01:03:26;;;;;;;19.02;10.00;;;;;;;5.25;100.00;100557.72;4953429;28;20394;-76
2024/03/12 01:05:53;;;;;;;16.73;9.23;;;;;;;5.23;100.00;100551.66;5015587;28;20506;-77
2024/03/12 01:08:19;;;;;;;16.00;8.95;;;;;;;5.23;100.00;100563.50;4998972;28;20049;-77
2024/03/12 01:10:45;;;;;;;16.83;9.75;;;;;;;5.24;100.00;100562.41;4983185;28;20041;-76
2024/03/12 01:13:11;;;;;;;15.63;8.90;;;;;;;5.25;100.00;100566.00;4982983;28;20030;-77
2024/03/12 01:15:36;;;;;;;16.48;9.00;;;;;;;5.24;100.00;100572.59;4992720;28;20387;-77
2024/03/12 01:18:03;;;;;;;17.55;9.18;;;;;;;5.27;100.00;100569.34;4962936;28;20034;-77
2024/03/12 01:20:28;;;;;;;17.90;8.98;;;;;;;5.27;100.00;100572.09;4963883;28;20528;-76
2024/03/12 01:22:54;;;;;;;19.02;9.63;;;;;;;5.26;100.00;100576.72;4975778;28;20134;-76
2024/03/12 01:25:23;;;;;;;19.25;9.48;;;;;;;5.27;100.00;100574.84;4960187;28;20058;-77
2024/03/12 01:27:48;;;;;;;16.55;9.57;;;;;;;5.27;100.00;100578.41;4994297;28;20689;-77
2024/03/12 01:30:14;;;;;;;15.35;9.05;;;;;;;5.24;100.00;100572.59;4979223;28;20034;-76
2024/03/12 01:32:40;;;;;;;18.65;8.90;;;;;;;5.32;100.00;100575.72;4979188;28;20030;-77
2024/03/12 01:35:08;;;;;;;16.48;9.60;;;;;;;5.30;100.00;100571.56;4995373;28;20035;-77
2024/03/12 01:37:36;;;;;;;13.00;8.65;;;;;;;5.29;100.00;100570.75;4968282;28;20501;-77
2024/03/12 01:40:19;;;;;;;15.20;9.00;;;;;;;5.32;100.00;100581.25;4950789;28;20037;-76
2024/03/12 01:42:48;;;;;;;17.02;9.93;;;;;;;5.32;100.00;100574.88;4969914;28;20041;-76
2024/03/12 01:45:15;;;;;;;14.68;8.85;;;;;;;5.31;100.00;100573.22;4991118;28;20038;-76
2024/03/12 01:47:41;;;;;;;16.00;9.10;;;;;;;5.31;100.00;100563.03;4954631;28;20114;-77
2024/03/12 01:50:07;;;;;;;15.35;8.88;;;;;;;5.36;100.00;100570.53;4987573;28;20026;-77
2024/03/12 01:52:33;;;;;;;15.30;8.38;;;;;;;5.37;100.00;100566.69;4975387;28;20027;-76
2024/03/12 01:54:58;;;;;;;15.57;8.75;;;;;;;5.38;100.00;100568.38;4971473;28;20068;-77
2024/03/12 01:57:24;;;;;;;16.50;9.43;;;;;;;5.40;100.00;100566.16;4978611;28;20102;-76
2024/03/12 01:59:50;;;;;;;16.42;8.70;;;;;;;5.39;100.00;100567.25;4980966;28;20038;-77
2024/03/12 02:02:16;;;;;;;14.45;7.82;;;;;;;5.41;100.00;100573.34;4987898;28;20038;-77
2024/03/12 02:04:42;;;;;;;12.25;7.93;;;;;;;5.45;100.00;100573.66;5007927;28;20034;-77
2024/03/12 02:07:11;;;;;;;12.98;8.60;;;;;;;5.45;100.00;100568.16;4978544;28;20018;-76
2024/03/12 02:09:37;;;;;;;14.63;8.65;;;;;;;5.46;100.00;100556.03;5009886;28;20112;-76
2024/03/12 02:12:03;;;;;;;17.13;8.63;;;;;;;5.48;100.00;100551.94;4985794;28;20034;-76
2024/03/12 02:14:29;;;;;;;15.23;8.77;;;;;;;5.49;100.00;100559.13;4966816;28;20026;-77
2024/03/12 02:16:55;;;;;;;16.15;8.52;;;;;;;5.49;100.00;100558.25;4961868;28;20430;-77
2024/03/12 02:19:21;;;;;;;16.42;8.45;;;;;;;5.51;100.00;100556.91;4978454;28;20039;-76
2024/03/12 02:21:46;;;;;;;18.27;8.07;;;;;;;5.51;100.00;100556.09;4962043;28;20033;-77
2024/03/12 02:24:12;;;;;;;17.27;8.02;;;;;;;5.53;100.00;100560.25;4946096;28;20494;-76
2024/03/12 02:26:37;;;;;;;14.38;8.48;;;;;;;5.53;100.00;100557.50;4977963;28;20089;-77
2024/03/12 02:29:07;;;;;;;17.40;8.68;;;;;;;5.55;100.00;100555.31;4994293;28;20054;-76
2024/03/12 02:31:34;;;;;;;12.98;7.95;;;;;;;5.57;100.00;100557.78;4962822;28;20117;-76
2024/03/12 02:33:59;;;;;;;14.73;7.60;;;;;;;5.58;100.00;100553.97;4961800;28;20076;-77
2024/03/12 02:36:25;;;;;;;15.30;8.55;;;;;;;5.59;100.00;100555.63;4961798;28;20038;-76
2024/03/12 02:38:50;;;;;;;14.95;7.80;;;;;;;5.59;100.00;100558.38;4978089;28;20049;-76
2024/03/12 02:41:16;;;;;;;13.43;7.97;;;;;;;5.57;100.00;100555.91;4977870;28;20038;-76
2024/03/12 02:43:41;;;;;;;14.73;8.55;;;;;;;5.58;100.00;100559.47;4961516;28;20186;-76
2024/03/12 02:46:10;;;;;;;13.23;8.00;;;;;;;5.58;100.00;100554.78;4978243;28;20453;-77
2024/03/12 02:48:36;;;;;;;14.15;7.75;;;;;;;5.60;100.00;100560.06;4993957;28;20038;-77
2024/03/12 02:51:02;;;;;;;14.20;7.68;;;;;;;5.60;100.00;100551.78;4994336;28;20035;-77
2024/03/12 02:53:27;;;;;;;15.77;7.75;;;;;;;5.60;100.00;100547.13;4977877;28;20037;-77
2024/03/12 02:55:53;;;;;;;13.45;7.30;;;;;;;5.64;100.00;100544.66;4962102;28;20027;-76
2024/03/12 02:58:25;;;;;;;13.32;7.72;;;;;;;5.62;100.00;100551.53;4977928;28;20038;-77
2024/03/12 03:00:50;;;;;;;14.32;8.13;;;;;;;5.60;100.00;100547.13;4993979;28;20050;-77
2024/03/12 03:03:16;;;;;;;13.43;7.82;;;;;;;5.59;100.00;100545.44;4977783;28;20031;-76
2024/03/12 03:05:43;;;;;;;13.68;7.72;;;;;;;5.63;100.00;100547.66;4961865;28;20038;-76
2024/03/12 03:08:10;;;;;;;13.45;7.40;;;;;;;5.63;100.00;100547.66;4979655;28;20018;-76
2024/03/12 03:10:36;;;;;;;14.85;7.50;;;;;;;5.67;100.00;100548.81;4997476;28;20044;-77
2024/03/12 03:13:01;;;;;;;13.43;7.72;;;;;;;5.60;100.00;100547.13;5000279;28;20034;-76
2024/03/12 03:15:27;;;;;;;14.43;8.20;;;;;;;5.65;100.00;100546.31;4974427;28;20033;-77
2024/03/12 03:17:52;;;;;;;15.25;8.15;;;;;;;5.64;100.00;100535.56;4981093;28;20390;-76
2024/03/12 03:20:18;;;;;;;12.55;7.20;;;;;;;5.64;100.00;100538.31;4954568;28;20092;-77
2024/03/12 03:22:44;;;;;;;12.75;7.70;;;;;;;5.66;100.00;100542.47;4948728;28;20102;-76
2024/03/12 03:25:13;;;;;;;15.07;8.07;;;;;;;5.67;100.00;100527.59;4980431;28;20038;-76
2024/03/12 03:27:38;;;;;;;16.98;8.57;;;;;;;5.64;100.00;100524.53;4950507;28;20035;-77
2024/03/12 03:30:07;;;;;;;12.52;7.55;;;;;;;5.63;100.00;100528.38;4997648;28;20088;-77
2024/03/12 03:32:35;;;;;;;16.65;7.53;;;;;;;5.66;100.00;100519.63;4981783;28;20622;-77
2024/03/12 03:35:02;;;;;;;14.45;8.35;;;;;;;5.65;100.00;100524.25;4981788;28;20031;-77
2024/03/12 03:37:32;;;;;;;14.10;7.70;;;;;;;5.64;100.00;100522.63;4981564;28;20081;-76
2024/03/12 03:39:58;;;;;;;13.98;7.38;;;;;;;5.63;100.00;100525.63;4962814;28;20027;-77
2024/03/12 03:42:24;;;;;;;12.82;7.50;;;;;;;5.62;100.00;100529.47;4979507;28;20037;-77
2024/03/12 03:44:50;;;;;;;16.35;7.00;;;;;;;5.61;100.00;100523.13;4965026;28;20502;-76
2024/03/12 03:47:15;;;;;;;12.52;7.47;;;;;;;5.57;100.00;100517.31;4947658;28;20035;-77
2024/03/12 03:49:40;;;;;;;18.27;7.50;;;;;;;5.56;100.00;100521.16;4997325;28;20038;-77
2024/03/12 03:52:07;;;;;;;12.20;6.72;;;;;;;5.56;100.00;100518.41;4984281;28;20031;-77
2024/03/12 03:54:32;;;;;;;15.63;8.30;;;;;;;5.57;100.00;100517.31;4965091;28;20160;-77
2024/03/12 03:56:58;;;;;;;12.63;7.75;;;;;;;5.55;100.00;100519.50;4997030;28;20029;-77
2024/03/12 03:59:24;;;;;;;16.02;7.85;;;;;;;5.56;100.00;100518.41;4996901;28;20061;-77
2024/03/12 04:01:50;;;;;;;13.45;7.20;;;;;;;5.53;100.00;100516.16;4964607;28;20052;-76
2024/03/12 04:04:18;;;;;;;14.60;7.15;;;;;;;5.51;100.00;100512.00;4964520;28;20438;-76
2024/03/12 04:06:44;;;;;;;15.88;7.72;;;;;;;5.53;100.00;100512.59;4965437;28;20489;-76
2024/03/12 04:09:09;;;;;;;13.63;7.03;;;;;;;5.49;100.00;100520.56;5006800;28;20026;-77
2024/03/12 04:11:35;;;;;;;15.15;7.32;;;;;;;5.52;100.00;100520.03;4979944;28;20034;-76
2024/03/12 04:14:02;;;;;;;12.23;7.03;;;;;;;5.51;100.00;100517.53;4976577;28;20026;-77
2024/03/12 04:16:30;;;;;;;14.23;7.35;;;;;;;5.54;100.00;100520.59;4973124;28;20030;-77
2024/03/12 04:18:58;;;;;;;16.63;7.43;;;;;;;5.54;100.00;100528.00;4956238;28;20042;-77
2024/03/12 04:21:24;;;;;;;14.60;7.28;;;;;;;5.51;100.00;100529.38;4996565;28;20037;-76
2024/03/12 04:23:50;;;;;;;16.42;7.82;;;;;;;5.51;100.00;100532.13;5007749;28;20038;-77
2024/03/12 04:26:15;;;;;;;13.60;7.15;;;;;;;5.50;100.00;100521.38;4966525;28;20038;-77
2024/03/12 04:28:42;;;;;;;15.93;7.35;;;;;;;5.48;100.00;100529.06;4959440;28;20037;-77
2024/03/12 04:31:08;;;;;;;13.48;6.85;;;;;;;5.50;100.00;100524.97;4955202;28;20026;-77
2024/03/12 04:33:34;;;;;;;11.60;6.55;;;;;;;5.50;100.00;100527.72;4999816;28;20033;-77
2024/03/12 04:36:00;;;;;;;15.27;6.90;;;;;;;5.53;100.00;100523.59;4977680;28;20482;-76
2024/03/12 04:38:25;;;;;;;14.40;7.35;;;;;;;5.52;100.00;100520.03;4992154;28;20034;-77
2024/03/12 04:40:51;;;;;;;13.95;7.07;;;;;;;5.54;100.00;100515.09;4965081;28;20026;-77
2024/03/12 04:43:19;;;;;;;14.45;7.63;;;;;;;5.54;100.00;100511.47;4963619;28;20026;-76
2024/03/12 04:45:45;;;;;;;16.65;7.13;;;;;;;5.57;100.00;100516.47;4986229;28;20022;-77
2024/03/12 04:48:11;;;;;;;12.52;7.10;;;;;;;5.59;100.00;100509.59;4952163;28;20030;-76
2024/03/12 04:50:37;;;;;;;14.20;7.40;;;;;;;5.59;100.00;100520.63;4978927;28;20041;-77
2024/03/12 04:53:03;;;;;;;15.32;6.90;;;;;;;5.64;100.00;100513.53;4992408;28;20470;-77
2024/03/12 04:55:29;;;;;;;13.85;6.88;;;;;;;5.65;100.00;100512.41;5002654;28;20060;-76
2024/03/12 04:57:54;;;;;;;15.63;7.65;;;;;;;5.67;100.00;100510.25;5004080;28;20026;-76
2024/03/12 05:00:21;;;;;;;16.85;7.35;;;;;;;5.64;100.00;100514.34;5006367;28;20601;-77
2024/03/12 05:02:46;;;;;;;14.95;7.45;;;;;;;5.69;100.00;100513.56;4973230;28;20548;-77
2024/03/12 05:05:19;;;;;;;18.58;8.13;;;;;;;5.68;100.00;100520.97;4992486;28;20042;-76
2024/03/12 05:07:45;;;;;;;13.40;7.43;;;;;;;5.70;100.00;100518.81;4995716;28;20041;-76
2024/03/12 05:10:11;;;;;;;14.38;7.30;;;;;;;5.75;100.00;100513.34;4987048;28;20077;-76
2024/03/12 05:12:37;;;;;;;18.83;7.03;;;;;;;5.74;100.00;100516.34;4966205;28;20046;-77
2024/03/12 05:15:04;;;;;;;16.00;7.60;;;;;;;5.75;100.00;100529.88;4971972;28;20077;-77
2024/03/12 05:17:29;;;;;;;14.07;7.45;;;;;;;5.76;100.00;100514.19;4963471;28;20034;-77
2024/03/12 05:19:55;;;;;;;15.05;6.90;;;;;;;5.79;100.00;100525.53;4990359;28;20384;-76
2024/03/12 05:22:22;;;;;;;16.85;7.78;;;;;;;5.81;100.00;100528.81;4955929;28;20022;-77
2024/03/12 05:24:47;;;;;;;15.75;6.85;;;;;;;5.79;100.00;100532.94;4976133;28;20026;-76
2024/03/12 05:27:21;;;;;;;22.27;7.60;;;;;;;5.83;100.00;100531.34;4963066;28;20076;-77
2024/03/12 05:29:52;;;;;;;13.40;6.70;;;;;;;5.84;100.00;100533.00;4972273;28;20030;-77
2024/03/12 05:32:18;;;;;;;12.40;6.85;;;;;;;5.86;100.00;100536.31;4999596;28;20033;-77
2024/03/12 05:34:45;;;;;;;12.82;7.22;;;;;;;5.87;100.00;100526.13;5007021;28;20026;-77
2024/03/12 05:37:28;;;;;;;16.20;7.38;;;;;;;5.88;100.00;100534.16;4962989;28;20026;-77
2024/03/12 05:40:10;;;;;;;16.08;7.70;;;;;;;5.89;100.00;100537.72;4965283;28;20034;-76
2024/03/12 05:48:09;;;;;;;16.85;6.18;;;;;;;5.96;100.00;100541.09;4988859;28;20038;-76
2024/03/12 05:50:36;;;;;;;15.52;7.13;;;;;;;5.98;100.00;100539.75;4969321;28;20052;-77
2024/03/12 05:53:02;;;;;;;16.65;7.45;;;;;;;5.96;100.00;100538.34;4998730;28;20033;-76
2024/03/12 05:55:27;;;;;;;11.77;5.97;;;;;;;5.99;100.00;100535.06;4963411;28;20094;-77
2024/03/12 05:57:53;;;;;;;12.75;6.13;;;;;;;6.02;100.00;100537.31;4978334;28;20052;-77
2024/03/12 06:00:19;;;;;;;11.32;6.30;;;;;;;6.03;100.00;100547.25;4981831;28;20046;-77
2024/03/12 06:02:44;;;;;;;15.10;6.13;;;;;;;6.04;100.00;100537.88;5003188;28;20041;-77
2024/03/12 06:05:12;;;;;;;13.85;6.32;;;;;;;6.07;100.00;100539.28;4991359;28;20030;-76
2024/03/12 06:07:52;;;;;;;13.15;5.90;;;;;;;6.09;100.00;100537.09;4995925;28;20025;-77
2024/03/12 06:10:17;;;;;;;15.30;6.13;;;;;;;6.10;100.00;100539.59;4996032;28;20054;-77
2024/03/12 06:12:43;;;;;;;12.57;6.00;;;;;;;6.13;100.00;100540.97;4978684;28;20058;-77
2024/03/12 06:15:09;;;;;;;14.80;6.00;;;;;;;6.14;100.00;100531.63;4978224;28;20426;-77
2024/03/12 06:17:34;;;;;;;15.23;6.22;;;;;;;6.17;100.00;100545.72;5010743;28;20034;-77
2024/03/12 06:20:00;;;;;;;11.40;5.85;;;;;;;6.18;100.00;100543.78;4971561;28;20085;-77
2024/03/12 06:22:26;;;;;;;15.15;6.05;;;;;;;6.20;100.00;100538.84;4958965;28;20038;-77
2024/03/12 06:24:52;;;;;;;14.60;6.22;;;;;;;6.21;100.00;100534.97;4975287;28;20038;-77
2024/03/12 06:27:18;;;;;;;9.57;5.50;;;;;;;6.24;100.00;100545.47;4971108;28;20029;-77
2024/03/12 06:29:49;;;;;;;10.30;5.68;;;;;;;6.25;100.00;100539.69;4997401;28;20034;-77
2024/03/12 06:32:17;;;;;;;16.35;6.20;;;;;;;6.27;100.00;100547.72;4965430;28;20425;-77
2024/03/12 06:34:43;;;;;;;12.27;6.28;;;;;;;6.27;100.00;100547.72;4962153;28;20089;-77
2024/03/12 06:37:09;;;;;;;15.82;5.68;;;;;;;6.33;100.00;100546.66;4990872;28;20030;-77
2024/03/12 06:39:35;;;;;;;13.40;6.05;;;;;;;6.33;100.00;100546.66;4994552;28;20435;-76
2024/03/12 06:42:01;;;;;;;14.30;5.18;;;;;;;6.34;100.00;100541.97;4978072;28;20479;-77
2024/03/12 06:44:28;;;;;;;14.07;6.00;;;;;;;6.37;100.00;100544.19;4970510;28;20053;-77
2024/03/12 06:46:54;;;;;;;9.63;5.85;;;;;;;6.40;100.00;100541.72;4975810;28;20024;-76
2024/03/12 06:49:20;;;;;;;11.13;6.78;;;;;;;6.42;100.00;100534.03;4989671;28;20552;-77
2024/03/12 06:51:48;;;;;;;13.23;5.80;;;;;;;6.43;100.00;100540.38;4978967;28;20029;-77
2024/03/12 06:54:14;;;;;;;11.57;5.90;;;;;;;6.45;100.00;100550.03;4994294;28;20040;-77
2024/03/12 06:56:43;;;;;;;13.98;5.88;;;;;;;6.47;100.00;100549.78;4977706;28;20023;-76
2024/03/12 06:59:15;;;;;;;13.70;5.72;;;;;;;6.52;100.00;100551.72;4990464;28;20025;-77
2024/03/12 07:01:43;;;;;;;12.52;5.70;;;;;;;6.54;100.00;100547.59;4970825;28;20053;-77
2024/03/12 07:04:11;;;;;;;14.35;6.15;;;;;;;6.57;100.00;100549.00;4985894;28;20486;-77
2024/03/12 07:06:42;;;;;;;14.35;6.57;;;;;;;6.58;100.00;100536.88;5013722;28;20031;-77
2024/03/12 07:09:09;;;;;;;11.90;6.03;;;;;;;6.62;100.00;100549.88;5010594;28;20029;-77
2024/03/12 07:11:41;;;;;;;14.27;6.00;;;;;;;6.65;100.00;100545.75;4984195;28;20061;-76
2024/03/12 07:14:23;;;;;;;10.77;6.25;;;;;;;6.68;100.00;100557.06;4983581;28;20028;-76
2024/03/12 07:16:52;;;;;;;14.40;5.53;;;;;;;6.73;100.00;100561.81;4980740;28;20049;-77
2024/03/12 07:19:17;;;;;;;10.95;5.30;;;;;;;6.76;100.00;100577.00;4977513;28;20038;-76
2024/03/12 07:21:43;;;;;;;12.68;5.68;;;;;;;6.78;100.00;100574.81;5001906;28;20030;-76
2024/03/12 07:24:12;;;;;;;11.80;4.95;;;;;;;6.83;100.00;100578.44;4997245;28;20415;-76
2024/03/12 07:26:37;;;;;;;13.07;5.25;;;;;;;6.85;100.00;100573.50;5000262;28;20030;-77
2024/03/12 07:29:06;;;;;;;13.60;5.20;;;;;;;6.89;100.00;100569.06;4980891;28;20092;-77
2024/03/12 07:31:33;;;;;;;12.27;5.00;;;;;;;6.92;100.00;100571.28;5001109;28;20065;-77
2024/03/12 07:34:01;;;;;;;14.20;5.57;;;;;;;6.96;100.00;100562.47;5000265;28;20041;-76
2024/03/12 07:36:30;;;;;;;19.60;5.35;;;;;;;7.02;100.00;100556.72;4993004;28;20034;-77
2024/03/12 07:38:59;;;;;;;15.23;5.45;;;;;;;7.06;100.00;100559.78;4990512;28;20108;-77
2024/03/12 07:41:25;;;;;;;12.95;4.93;;;;;;;7.11;100.00;100552.34;4961664;28;20026;-77
2024/03/12 07:43:50;;;;;;;16.77;5.10;;;;;;;7.16;100.00;100548.78;5000857;28;20029;-77
2024/03/12 07:46:17;;;;;;;14.02;4.93;;;;;;;7.22;100.00;100555.97;4978130;28;20121;-77
2024/03/12 07:48:43;;;;;;;17.60;5.38;;;;;;;7.28;100.00;100560.41;4990882;28;20030;-77
2024/03/12 07:51:09;;;;;;;13.80;4.90;;;;;;;7.32;100.00;100566.22;4978196;28;20037;-76
2024/03/12 07:53:35;;;;;;;15.27;4.85;;;;;;;7.37;100.00;100563.47;4958050;28;20025;-77
2024/03/12 07:56:01;;;;;;;13.93;5.00;;;;;;;7.43;100.00;100567.09;4959886;28;20057;-77
2024/03/12 07:58:29;;;;;;;12.45;4.63;;;;;;;7.47;100.00;100569.03;4996587;28;20561;-77
2024/03/12 08:00:55;;;;;;;12.05;4.22;;;;;;;7.56;100.00;100572.91;4999646;28;20050;-77
2024/03/12 08:03:20;;;;;;;13.13;4.50;;;;;;;7.60;100.00;100571.28;4966473;28;20043;-77
2024/03/12 08:05:46;;;;;;;9.23;3.70;;;;;;;7.64;100.00;100574.34;4987377;28;20022;-77
2024/03/12 08:08:12;;;;;;;12.55;3.90;;;;;;;7.71;100.00;100582.34;4973771;28;20052;-77
2024/03/12 08:10:38;;;;;;;14.77;4.20;;;;;;;7.76;100.00;100576.84;4975014;28;20023;-77
2024/03/12 08:13:05;;;;;;;14.07;4.20;;;;;;;7.81;100.00;100588.72;4993350;28;20046;-77
2024/03/12 08:15:31;;;;;;;13.00;3.63;;;;;;;7.88;100.00;100594.00;4987380;28;20046;-77
2024/03/12 08:17:56;;;;;;;16.70;4.05;;;;;;;7.89;100.00;100594.84;5006095;28;20099;-76
2024/03/12 08:20:22;;;;;;;15.05;3.40;;;;;;;7.94;100.00;100595.69;4970828;28;20046;-77
2024/03/12 08:22:48;;;;;;;15.60;4.15;;;;;;;7.96;100.00;100596.22;4961305;28;20092;-77
2024/03/12 08:25:14;;;;;;;8.77;3.40;;;;;;;8.01;100.00;100607.28;5007405;28;20034;-77
2024/03/12 08:27:40;;;;;;;13.40;3.35;;;;;;;8.03;100.00;100610.63;4970631;28;20022;-77
2024/03/12 08:30:08;;;;;;;12.85;4.00;;;;;;;8.07;100.00;100608.94;4988470;28;20042;-77
2024/03/12 08:32:35;;;;;;;11.20;3.03;;;;;;;8.07;100.00;100608.94;4976667;28;20050;-77
2024/03/12 08:35:01;;;;;;;8.23;2.85;;;;;;;8.13;100.00;100612.56;4971485;28;20372;-76
2024/03/12 08:37:27;;;;;;;9.68;2.75;;;;;;;8.16;100.00;100600.97;4992060;28;20105;-76
2024/03/12 08:39:53;;;;;;;11.32;2.90;;;;;;;8.21;100.00;100600.13;4982362;28;20524;-76
2024/03/12 08:42:19;;;;;;;11.07;2.75;;;;;;;8.26;100.00;100609.25;4998284;28;20031;-76
2024/03/12 08:44:45;;;;;;;12.70;2.83;;;;;;;8.29;100.00;100602.34;4964871;28;20026;-77
2024/03/12 08:47:11;;;;;;;9.93;2.50;;;;;;;8.33;100.00;100610.91;4992987;28;20033;-77
2024/03/12 08:49:37;;;;;;;9.98;2.72;;;;;;;8.34;100.00;100604.28;5001269;28;20035;-77
2024/03/12 08:52:03;;;;;;;15.43;3.10;;;;;;;8.37;100.00;100606.50;4960752;28;20030;-77
2024/03/12 08:54:29;;;;;;;9.70;2.20;;;;;;;8.44;100.00;100607.06;4968478;28;20023;-77
2024/03/12 08:56:54;;;;;;;14.15;2.88;;;;;;;8.47;100.00;100607.34;4975003;28;20030;-77
2024/03/12 08:59:20;;;;;;;10.13;2.53;;;;;;;8.54;100.00;100607.06;4976675;28;20038;-77
2024/03/12 09:01:46;;;;;;;11.98;2.40;;;;;;;8.59;100.00;100606.22;4976233;28;20047;-77
2024/03/12 09:04:12;;;;;;;11.63;2.80;;;;;;;8.67;100.00;100611.22;4983235;28;20549;-77
2024/03/12 09:06:37;;;;;;;9.93;2.80;;;;;;;8.68;100.00;100610.91;4997602;28;20069;-77
2024/03/12 09:09:04;;;;;;;13.93;2.78;;;;;;;8.78;100.00;100609.25;4990215;28;20549;-77
2024/03/12 09:11:30;;;;;;;7.75;2.30;;;;;;;8.80;100.00;100607.84;4983154;28;20026;-77
2024/03/12 09:13:56;;;;;;;12.65;2.63;;;;;;;8.89;100.00;100614.50;4979444;28;20026;-77
2024/03/12 09:16:21;;;;;;;10.10;2.92;;;;;;;8.94;100.00;100627.47;4979697;28;20077;-76
2024/03/12 09:18:47;;;;;;;13.20;2.45;;;;;;;9.02;100.00;100617.78;4995707;28;20089;-77
2024/03/12 09:21:13;;;;;;;15.73;2.75;;;;;;;9.04;100.00;100616.38;4979813;28;20041;-76
2024/03/12 09:23:45;;;;;;;11.77;2.60;;;;;;;9.12;100.00;100617.75;4956325;28;20033;-76
2024/03/12 09:26:10;;;;;;;11.65;2.38;;;;;;;9.15;100.00;100617.19;4986032;28;20026;-76
2024/03/12 09:28:38;;;;;;;7.50;2.47;;;;;;;9.23;100.00;100618.56;4973801;28;20022;-76
2024/03/12 09:31:04;;;;;;;7.97;2.22;;;;;;;9.28;100.00;100615.78;4965180;28;20077;-77
2024/03/12 09:33:30;;;;;;;9.63;2.03;;;;;;;9.33;100.00;100612.97;5007704;28;20026;-76
2024/03/12 09:35:55;;;;;;;12.20;2.58;;;;;;;9.44;100.00;100614.56;4993940;28;20064;-76
2024/03/12 09:38:21;;;;;;;13.63;2.78;;;;;;;9.51;100.00;100608.75;4996606;28;20099;-77
2024/03/12 09:40:50;;;;;;;13.60;2.63;;;;;;;9.56;100.00;100612.31;4990274;28;20027;-76
2024/03/12 09:43:18;;;;;;;10.80;2.15;;;;;;;9.68;100.00;100616.69;4959647;28;20027;-77
2024/03/12 09:45:44;;;;;;;11.45;2.95;;;;;;;9.77;100.00;100613.00;4977411;28;20570;-76
2024/03/12 09:48:11;;;;;;;8.43;2.47;;;;;;;9.90;100.00;100616.28;4978971;28;20026;-77
2024/03/12 09:50:38;;;;;;;11.45;2.60;;;;;;;10.00;100.00;100617.06;4985273;28;20449;-77
2024/03/12 09:53:03;;;;;;;11.35;2.40;;;;;;;10.09;100.00;100625.59;5001535;28;20037;-77
2024/03/12 09:55:29;;;;;;;9.30;2.45;;;;;;;10.18;100.00;100623.03;4959312;28;20033;-76
2024/03/12 09:57:55;;;;;;;10.93;2.00;;;;;;;10.25;100.00;100623.53;4949398;28;20031;-76
2024/03/12 10:00:27;;;;;;;11.88;2.15;;;;;;;10.34;100.00;100621.84;4984864;28;20057;-76
2024/03/12 10:02:52;;;;;;;9.17;1.97;;;;;;;10.42;100.00;100626.78;4953434;28;20038;-77
2024/03/12 10:05:21;;;;;;;10.73;2.55;;;;;;;10.52;100.00;100629.44;4962617;28;20268;-76
2024/03/12 10:08:06;;;;;;;14.80;2.60;;;;;;;10.62;100.00;100631.31;4996047;28;20022;-77
2024/03/12 10:10:35;;;;;;;15.20;3.00;;;;;;;10.70;100.00;100624.31;4978585;28;20034;-77
2024/03/12 10:13:00;;;;;;;16.20;2.97;;;;;;;10.74;100.00;100631.75;4978245;28;20026;-77
2024/03/12 10:15:26;;;;;;;16.55;2.60;;;;;;;10.81;100.00;100636.13;4962257;28;20026;-77
2024/03/12 10:17:59;;;;;;;16.20;2.38;;;;;;;10.85;100.00;100631.66;4977713;28;21679;-77
2024/03/12 10:20:28;;;;;;;13.85;2.88;;;;;;;10.87;100.00;100638.56;4994412;28;20038;-77
2024/03/12 10:23:04;;;;;;;9.52;2.00;;;;;;;10.91;100.00;100636.84;4965515;28;20069;-76
2024/03/12 10:25:30;;;;;;;12.07;2.15;;;;;;;10.94;100.00;100639.03;4965608;28;20506;-76
2024/03/12 10:27:55;;;;;;;9.05;2.20;;;;;;;11.03;100.00;100653.16;4984310;28;20049;-76
2024/03/12 10:30:28;;;;;;;11.68;2.22;;;;;;;11.12;100.00;100645.00;4952830;28;20037;-76
2024/03/12 10:32:55;;;;;;;13.15;2.70;;;;;;;11.23;100.00;100643.78;4997693;28;20034;-76
2024/03/12 10:35:21;;;;;;;8.98;2.10;;;;;;;11.33;100.00;100638.06;4951921;28;20031;-77
2024/03/12 10:37:50;;;;;;;11.82;2.22;;;;;;;11.51;100.00;100630.09;4990277;28;20033;-77
2024/03/12 10:40:19;;;;;;;11.02;2.83;;;;;;;11.60;100.00;100631.09;4975143;28;20520;-76
2024/03/12 10:42:57;;;;;;;11.55;2.00;;;;;;;11.74;100.00;100623.66;4994176;28;20038;-76
2024/03/12 10:45:24;;;;;;;9.48;2.28;;;;;;;11.94;100.00;100630.09;4982542;28;20042;-76
2024/03/12 10:47:49;;;;;;;17.75;2.67;;;;;;;12.10;100.00;100623.19;4977117;28;20555;-77
2024/03/12 10:50:16;;;;;;;11.57;2.17;;;;;;;12.26;100.00;100618.22;4946110;28;20104;-77
2024/03/12 10:52:45;;;;;;;11.25;2.67;;;;;;;12.42;100.00;100615.97;4994438;28;20026;-77
2024/03/12 10:55:21;;;;;;;12.18;2.05;;;;;;;12.62;100.00;100604.50;5010062;28;20031;-77
2024/03/12 10:57:55;;;;;;;12.93;2.22;;;;;;;12.83;100.00;100601.34;4995451;28;20038;-77
2024/03/12 11:00:24;;;;;;;12.10;2.42;;;;;;;13.00;100.00;100600.75;4976548;28;20077;-77
2024/03/12 11:02:51;;;;;;;16.10;2.10;;;;;;;13.22;100.00;100591.69;5001901;28;20046;-77
2024/03/12 11:05:18;;;;;;;13.48;2.22;;;;;;;13.37;100.00;100591.38;4957870;28;20026;-77
2024/03/12 11:07:44;;;;;;;14.00;2.25;;;;;;;13.55;100.00;100598.81;4963976;28;20033;-77
2024/03/12 11:10:10;;;;;;;7.68;1.80;;;;;;;13.69;100.00;100589.59;4985421;28;20475;-77
2024/03/12 11:12:36;;;;;;;11.43;2.00;;;;;;;13.85;100.00;100596.50;4974747;28;20105;-77
2024/03/12 11:15:01;;;;;;;14.93;3.33;;;;;;;13.98;100.00;100592.00;4981208;28;20035;-78
2024/03/12 11:17:27;;;;;;;10.13;2.25;;;;;;;14.08;100.00;100587.00;4970257;28;20038;-77
2024/03/12 11:19:53;;;;;;;11.50;2.10;;;;;;;14.19;100.00;100587.59;4993758;28;20037;-77